createdAt,value
2023-03-05T00:00:45.784Z,101387.16
2023-03-05T00:05:47.245Z,101380.25
2023-03-05T00:10:56.165Z,101372.78
2023-03-05T00:15:57.705Z,101366.72
2023-03-05T00:20:59.267Z,101374.50
2023-03-05T00:26:01.983Z,101359.00
2023-03-05T00:31:03.525Z,101364.25
2023-03-05T00:36:06.240Z,101365.09
2023-03-05T00:41:08.275Z,101351.38
2023-03-05T00:46:09.804Z,101355.50
2023-03-05T00:51:11.372Z,101346.91
2023-03-05T00:56:12.840Z,101336.59
2023-03-05T01:01:14.311Z,101328.81
2023-03-05T01:06:16.976Z,101323.72
2023-03-05T01:11:18.546Z,101320.16
2023-03-05T01:16:20.064Z,101309.91
2023-03-05T01:21:22.014Z,101297.03
2023-03-05T01:26:23.571Z,101285.91
2023-03-05T01:31:25.134Z,101295.63
2023-03-05T01:36:26.629Z,101279.34
2023-03-05T01:41:28.090Z,101277.63
2023-03-05T01:46:36.522Z,101267.47
2023-03-05T01:51:48.201Z,101258.59
2023-03-05T01:56:50.249Z,101256.06
2023-03-05T02:01:53.222Z,101261.88
2023-03-05T02:06:54.683Z,101248.41
2023-03-05T02:11:56.197Z,101241.53
2023-03-05T02:16:57.662Z,101233.72
2023-03-05T02:21:59.176Z,101229.34
2023-03-05T02:27:00.895Z,101229.41
2023-03-05T02:32:02.466Z,101214.91
2023-03-05T02:37:04.655Z,101212.22
2023-03-05T02:42:06.653Z,101208.06
2023-03-05T02:47:08.114Z,101200.25
2023-03-05T02:52:09.592Z,101192.47
2023-03-05T02:57:11.131Z,101192.31
2023-03-05T03:02:12.678Z,101179.03
2023-03-05T03:07:14.296Z,101176.03
2023-03-05T03:12:15.751Z,101190.03
2023-03-05T03:17:17.518Z,101174.06
2023-03-05T03:22:19.130Z,101165.38
2023-03-05T03:27:20.608Z,101175.75
2023-03-05T03:32:22.098Z,101182.75
2023-03-05T03:37:23.559Z,101161.28
2023-03-05T03:42:25.186Z,101154.28
2023-03-05T03:47:26.647Z,101142.16
2023-03-05T03:52:28.135Z,101141.13
2023-03-05T03:57:29.963Z,101136.91
2023-03-05T04:02:31.425Z,101111.19
2023-03-05T04:07:32.906Z,101117.94
2023-03-05T04:12:34.368Z,101115.47
2023-03-05T04:17:35.835Z,101118.91
2023-03-05T04:22:37.480Z,101121.50
2023-03-05T04:27:42.468Z,101114.53
2023-03-05T04:32:43.921Z,101105.56
2023-03-05T04:37:45.379Z,101107.22
2023-03-05T04:42:46.845Z,101105.31
2023-03-05T04:47:48.321Z,101100.03
2023-03-05T04:52:49.781Z,101095.75
2023-03-05T04:57:51.253Z,101097.59
2023-03-05T05:02:52.897Z,101093.22
2023-03-05T05:07:57.732Z,101082.16
2023-03-05T05:12:59.202Z,101076.22
2023-03-05T05:18:00.673Z,101081.63
2023-03-05T05:23:02.156Z,101086.66
2023-03-05T05:28:03.763Z,101073.09
2023-03-05T05:33:05.208Z,101082.56
2023-03-05T05:38:06.658Z,101079.72
2023-03-05T05:43:08.452Z,101073.00
2023-03-05T05:48:09.943Z,101071.06
2023-03-05T05:53:11.403Z,101080.66
2023-03-05T05:58:12.873Z,101079.00
2023-03-05T06:03:14.547Z,101071.16
2023-03-05T06:08:16.233Z,101055.56
2023-03-05T06:13:17.816Z,101050.84
2023-03-05T06:18:19.290Z,101060.00
2023-03-05T06:23:20.802Z,101053.88
2023-03-05T06:28:22.285Z,101052.25
2023-03-05T06:33:25.193Z,101057.91
2023-03-05T06:38:26.707Z,101042.75
2023-03-05T06:43:28.191Z,101055.59
2023-03-05T06:48:29.661Z,101041.84
2023-03-05T06:53:31.252Z,101045.94
2023-03-05T06:58:32.719Z,101056.28
2023-03-05T07:03:35.209Z,101060.34
2023-03-05T07:08:36.942Z,101055.94
2023-03-05T07:13:38.502Z,101054.00
2023-03-05T07:18:40.075Z,101058.41
2023-03-05T07:23:41.561Z,101054.72
2023-03-05T07:28:43.049Z,101049.63
2023-03-05T07:33:45.411Z,101041.41
2023-03-05T07:38:46.893Z,101037.69
2023-03-05T07:43:48.630Z,101044.91
2023-03-05T07:48:50.122Z,101038.63
2023-03-05T07:53:52.095Z,101045.13
2023-03-05T07:58:53.578Z,101034.97
2023-03-05T08:03:55.119Z,101025.03
2023-03-05T08:08:57.274Z,101025.78
2023-03-05T08:13:59.460Z,101020.63
2023-03-05T08:19:01.085Z,101009.50
2023-03-05T08:24:07.129Z,101003.78
2023-03-05T08:29:08.702Z,101002.88
2023-03-05T08:34:10.159Z,100999.94
2023-03-05T08:39:11.682Z,100993.13
2023-03-05T08:44:13.183Z,100998.63
2023-03-05T08:49:14.647Z,101005.09
2023-03-05T08:54:16.113Z,101003.63
2023-03-05T08:59:17.575Z,101011.09
2023-03-05T09:04:19.098Z,101003.75
2023-03-05T09:09:23.230Z,100995.94
2023-03-05T09:14:24.718Z,100984.44
2023-03-05T09:19:27.464Z,100982.78
2023-03-05T09:24:28.959Z,100986.19
2023-03-05T09:29:31.369Z,100975.63
2023-03-05T09:34:34.521Z,100988.00
2023-03-05T09:39:36.379Z,100976.34
2023-03-05T09:44:46.873Z,100965.25
2023-03-05T09:49:59.879Z,100949.63
2023-03-05T09:55:01.492Z,100949.84
2023-03-05T10:00:12.559Z,100960.66
2023-03-05T10:05:25.142Z,100953.69
2023-03-05T10:10:28.530Z,100946.63
2023-03-05T10:15:39.252Z,100937.31
2023-03-05T10:21:12.999Z,100934.63
2023-03-05T10:26:41.915Z,100926.03
2023-03-05T10:31:50.234Z,100924.09
2023-03-05T10:37:17.578Z,100925.50
2023-03-05T10:42:34.272Z,100918.84
2023-03-05T10:47:48.689Z,100915.19
2023-03-05T10:52:55.360Z,100921.28
2023-03-05T10:57:56.832Z,100909.03
2023-03-05T11:03:00.451Z,100896.38
2023-03-05T11:08:10.047Z,100893.59
2023-03-05T11:13:27.501Z,100888.53
2023-03-05T11:18:34.260Z,100881.66
2023-03-05T11:23:35.841Z,100885.25
2023-03-05T11:28:40.503Z,100874.72
2023-03-05T11:34:08.277Z,100869.50
2023-03-05T11:39:09.768Z,100871.59
2023-03-05T11:44:27.451Z,100855.38
2023-03-05T11:49:29.876Z,100853.34
2023-03-05T11:54:36.722Z,100849.25
2023-03-05T11:59:40.243Z,100852.84
2023-03-05T12:04:41.780Z,100837.94
2023-03-05T12:09:46.696Z,100826.53
2023-03-05T12:14:58.214Z,100818.28
2023-03-05T12:20:06.505Z,100815.09
2023-03-05T12:25:46.809Z,100810.31
2023-03-05T12:30:48.131Z,100788.94
2023-03-05T12:35:49.680Z,100791.72
2023-03-05T12:40:51.175Z,100776.34
2023-03-05T12:45:53.149Z,100773.81
2023-03-05T12:50:58.224Z,100768.59
2023-03-05T12:56:12.653Z,100760.06
2023-03-05T13:01:43.500Z,100749.03
2023-03-05T13:06:45.130Z,100742.28
2023-03-05T13:11:48.433Z,100729.31
2023-03-05T13:16:49.993Z,100728.72
2023-03-05T13:22:04.254Z,100730.50
2023-03-05T13:27:29.090Z,100717.00
2023-03-05T13:32:32.036Z,100710.38
2023-03-05T13:37:34.563Z,100707.28
2023-03-05T13:42:36.769Z,100705.50
2023-03-05T13:47:38.246Z,100696.13
2023-03-05T13:52:39.710Z,100704.72
2023-03-05T13:57:42.756Z,100685.19
2023-03-05T14:02:44.399Z,100697.91
2023-03-05T14:07:48.418Z,100684.66
2023-03-05T14:12:50.140Z,100680.41
2023-03-05T14:17:51.749Z,100672.19
2023-03-05T14:22:57.829Z,100663.41
2023-03-05T14:27:59.682Z,100650.56
2023-03-05T14:33:01.168Z,100645.06
2023-03-05T14:38:02.713Z,100635.22
2023-03-05T14:43:05.320Z,100623.84
2023-03-05T14:48:07.520Z,100622.44
2023-03-05T14:53:10.735Z,100612.13
2023-03-05T14:58:21.992Z,100596.22
2023-03-05T15:03:23.624Z,100588.22
2023-03-05T15:08:29.654Z,100586.69
2023-03-05T15:13:31.723Z,100576.00
2023-03-05T15:18:33.217Z,100559.09
2023-03-05T15:23:38.059Z,100557.34
2023-03-05T15:28:39.827Z,100559.28
2023-03-05T15:33:41.835Z,100539.88
2023-03-05T15:38:43.452Z,100534.13
2023-03-05T15:43:44.947Z,100539.16
2023-03-05T15:48:49.923Z,100521.75
2023-03-05T15:53:51.397Z,100515.41
2023-03-05T15:58:53.101Z,100508.34
2023-03-05T16:03:54.620Z,100496.94
2023-03-05T16:08:59.961Z,100485.59
2023-03-05T16:14:06.446Z,100466.31
2023-03-05T16:19:08.465Z,100461.16
2023-03-05T16:24:09.927Z,100453.16
2023-03-05T16:29:11.432Z,100454.41
2023-03-05T16:34:14.138Z,100443.06
2023-03-05T16:39:15.651Z,100428.06
2023-03-05T16:44:17.141Z,100416.25
2023-03-05T16:49:18.648Z,100410.16
2023-03-05T16:54:21.861Z,100398.16
2023-03-05T16:59:24.011Z,100390.88
2023-03-05T17:04:25.538Z,100385.19
2023-03-05T17:09:27.079Z,100384.13
2023-03-05T17:14:28.580Z,100380.22
2023-03-05T17:19:30.064Z,100396.56
2023-03-05T17:24:32.883Z,100411.94
2023-03-05T17:29:34.406Z,100402.38
2023-03-05T17:34:37.098Z,100399.03
2023-03-05T17:39:38.921Z,100395.25
2023-03-05T17:44:40.376Z,100401.38
2023-03-05T17:49:41.849Z,100398.75
2023-03-05T17:54:43.299Z,100395.00
2023-03-05T17:59:44.799Z,100403.38
2023-03-05T18:04:47.881Z,100408.38
2023-03-05T18:09:49.390Z,100400.94
2023-03-05T18:14:50.889Z,100401.00
2023-03-05T18:19:52.398Z,100401.00
2023-03-05T18:24:54.011Z,100400.81
2023-03-05T18:29:55.564Z,100396.69
2023-03-05T18:34:57.047Z,100384.88
2023-03-05T18:39:59.019Z,100373.78
2023-03-05T18:45:01.194Z,100379.63
2023-03-05T18:50:02.695Z,100380.00
2023-03-05T18:55:04.399Z,100373.53
2023-03-05T19:00:06.547Z,100371.84
2023-03-05T19:05:08.362Z,100364.66
2023-03-05T19:10:11.234Z,100363.81
2023-03-05T19:15:13.006Z,100365.78
2023-03-05T19:20:15.883Z,100364.81
2023-03-05T19:25:17.490Z,100366.47
2023-03-05T19:30:19.110Z,100358.38
2023-03-05T19:35:20.682Z,100364.44
2023-03-05T19:40:22.493Z,100365.72
2023-03-05T19:45:23.974Z,100347.50
2023-03-05T19:50:25.454Z,100352.50
2023-03-05T19:55:26.999Z,100356.66
2023-03-05T20:00:28.737Z,100352.75
2023-03-05T20:05:30.229Z,100339.94
2023-03-05T20:10:31.762Z,100348.81
2023-03-05T20:15:33.269Z,100345.78
2023-03-05T20:20:34.783Z,100335.44
2023-03-05T20:25:38.143Z,100330.53
2023-03-05T20:30:39.793Z,100330.34
2023-03-05T20:35:41.356Z,100327.41
2023-03-05T20:40:42.857Z,100330.00
2023-03-05T20:45:44.372Z,100329.03
2023-03-05T20:50:47.036Z,100340.28
2023-03-05T20:55:48.587Z,100330.06
2023-03-05T21:00:50.119Z,100332.91
2023-03-05T21:05:51.671Z,100334.94
2023-03-05T21:10:53.151Z,100321.88
2023-03-05T21:15:54.740Z,100313.03
2023-03-05T21:20:56.235Z,100308.63
2023-03-05T21:25:57.765Z,100298.00
2023-03-05T21:31:05.353Z,100297.38
2023-03-05T21:36:07.649Z,100300.47
2023-03-05T21:41:09.833Z,100286.41
2023-03-05T21:46:11.392Z,100283.00
2023-03-05T21:51:13.726Z,100280.97
2023-03-05T21:56:15.662Z,100271.03
2023-03-05T22:01:19.356Z,100273.97
2023-03-05T22:06:21.016Z,100264.91
2023-03-05T22:11:22.528Z,100263.69
2023-03-05T22:16:25.379Z,100256.00
2023-03-05T22:21:27.420Z,100257.50
2023-03-05T22:26:39.163Z,100244.66
2023-03-05T22:31:40.697Z,100237.06
2023-03-05T22:36:42.202Z,100227.00
2023-03-05T22:41:43.676Z,100232.19
2023-03-05T22:46:45.165Z,100221.44
2023-03-05T22:51:46.701Z,100217.88
2023-03-05T22:56:48.177Z,100234.94
2023-03-05T23:01:49.649Z,100229.59
2023-03-05T23:06:51.157Z,100221.25
2023-03-05T23:11:52.641Z,100213.63
2023-03-05T23:16:54.119Z,100208.25
2023-03-05T23:21:55.620Z,100208.72
2023-03-05T23:26:57.143Z,100202.16
2023-03-05T23:31:58.623Z,100195.50
2023-03-05T23:37:00.289Z,100196.50
2023-03-05T23:42:01.767Z,100191.72
2023-03-05T23:47:03.271Z,100198.22
2023-03-05T23:52:04.854Z,100189.66
2023-03-05T23:57:06.351Z,100196.97
